createdAt,value
2023-04-23T00:02:01.651Z,8.27
2023-04-23T00:04:36.810Z,8.13
2023-04-23T00:07:09.225Z,8.02
2023-04-23T00:09:39.655Z,8.03
2023-04-23T00:12:10.211Z,7.94
2023-04-23T00:14:39.600Z,7.95
2023-04-23T00:17:11.449Z,7.82
2023-04-23T00:19:41.172Z,7.62
2023-04-23T00:22:11.947Z,8.06
2023-04-23T00:24:41.796Z,7.80
2023-04-23T00:27:11.212Z,7.53
2023-04-23T00:29:40.831Z,7.71
2023-04-23T00:32:10.465Z,7.94
2023-04-23T00:34:41.147Z,7.85
2023-04-23T00:37:12.088Z,7.89
2023-04-23T00:39:41.331Z,7.79
2023-04-23T00:42:12.585Z,7.70
2023-04-23T00:44:42.909Z,7.66
2023-04-23T00:47:13.496Z,7.85
2023-04-23T00:49:44.530Z,7.54
2023-04-23T00:52:15.160Z,7.62
2023-04-23T00:54:44.684Z,7.44
2023-04-23T00:57:14.726Z,7.75
2023-04-23T00:59:44.272Z,7.87
2023-04-23T01:02:14.584Z,7.83
2023-04-23T01:04:45.955Z,7.84
2023-04-23T01:07:16.826Z,7.96
2023-04-23T01:09:46.161Z,7.54
2023-04-23T01:12:16.848Z,7.60
2023-04-23T01:14:46.368Z,7.79
2023-04-23T01:17:15.717Z,7.86
2023-04-23T01:19:46.998Z,7.89
2023-04-23T01:22:20.625Z,7.95
2023-04-23T01:24:50.783Z,7.99
2023-04-23T01:27:22.396Z,7.88
2023-04-23T01:29:55.055Z,7.79
2023-04-23T01:32:27.086Z,7.90
2023-04-23T01:39:54.628Z,7.95
2023-04-23T01:42:24.929Z,7.83
2023-04-23T01:44:58.084Z,7.92
2023-04-23T01:47:29.491Z,7.75
2023-04-23T01:50:01.429Z,7.92
2023-04-23T01:52:33.884Z,8.02
2023-04-23T01:55:05.976Z,8.20
2023-04-23T01:57:37.473Z,7.97
2023-04-23T02:00:11.905Z,8.10
2023-04-23T02:02:47.067Z,8.08
2023-04-23T02:05:20.446Z,7.91
2023-04-23T02:07:52.500Z,7.83
2023-04-23T02:10:25.685Z,7.86
2023-04-23T02:12:57.187Z,8.05
2023-04-23T02:15:29.022Z,7.87
2023-04-23T02:17:59.180Z,7.56
2023-04-23T02:20:28.502Z,7.95
2023-04-23T02:22:57.769Z,7.84
2023-04-23T02:25:32.286Z,7.58
2023-04-23T02:28:06.451Z,7.56
2023-04-23T02:30:38.429Z,7.52
2023-04-23T02:33:07.960Z,7.50
2023-04-23T02:35:37.245Z,7.63
2023-04-23T02:38:06.670Z,7.66
2023-04-23T02:40:40.566Z,7.58
2023-04-23T02:43:09.733Z,7.69
2023-04-23T02:45:41.091Z,7.71
2023-04-23T02:48:10.320Z,7.73
2023-04-23T02:50:40.394Z,7.68
2023-04-23T02:53:12.196Z,7.68
2023-04-23T02:55:42.795Z,7.73
2023-04-23T02:58:12.496Z,7.67
2023-04-23T03:00:43.278Z,7.67
2023-04-23T03:03:12.887Z,7.76
2023-04-23T03:05:42.432Z,7.74
2023-04-23T03:08:11.881Z,7.77
2023-04-23T03:10:42.509Z,7.71
2023-04-23T03:13:11.813Z,7.90
2023-04-23T03:15:41.897Z,7.82
2023-04-23T03:18:11.191Z,7.78
2023-04-23T03:20:41.349Z,7.77
2023-04-23T03:23:10.532Z,7.84
2023-04-23T03:25:43.753Z,7.94
2023-04-23T03:28:12.963Z,7.88
2023-04-23T03:30:42.508Z,7.99
2023-04-23T03:33:13.046Z,7.96
2023-04-23T03:35:42.793Z,8.18
2023-04-23T03:38:17.295Z,8.07
2023-04-23T03:40:48.448Z,7.90
2023-04-23T03:43:19.018Z,7.81
2023-04-23T03:46:16.898Z,7.82
2023-04-23T03:48:46.554Z,7.75
2023-04-23T03:51:23.955Z,7.85
2023-04-23T03:53:53.215Z,7.85
2023-04-23T03:56:44.604Z,7.87
2023-04-23T03:59:40.154Z,7.83
2023-04-23T04:02:11.625Z,7.83
2023-04-23T04:04:46.812Z,7.83
2023-04-23T04:07:17.004Z,7.76
2023-04-23T04:09:49.449Z,7.80
2023-04-23T04:12:22.334Z,7.80
2023-04-23T04:14:51.753Z,7.84
2023-04-23T04:17:21.161Z,7.97
2023-04-23T04:19:50.666Z,7.75
2023-04-23T04:22:20.487Z,7.90
2023-04-23T04:24:52.252Z,7.86
2023-04-23T04:27:22.941Z,7.87
2023-04-23T04:29:52.571Z,7.69
2023-04-23T04:32:23.676Z,7.81
2023-04-23T04:34:53.156Z,7.82
2023-04-23T04:37:22.683Z,7.90
2023-04-23T04:39:51.765Z,7.75
2023-04-23T04:42:22.492Z,7.86
2023-04-23T04:44:52.709Z,7.87
2023-04-23T04:47:22.298Z,6.73
2023-04-23T04:49:57.310Z,7.96
2023-04-23T04:52:27.005Z,7.77
2023-04-23T04:54:58.765Z,7.94
2023-04-23T04:57:29.510Z,7.87
2023-04-23T04:59:58.964Z,7.86
2023-04-23T05:02:28.500Z,7.83
2023-04-23T05:04:58.561Z,7.90
2023-04-23T05:07:27.938Z,7.98
2023-04-23T05:09:57.158Z,7.89
2023-04-23T05:12:27.951Z,7.85
2023-04-23T05:14:58.928Z,7.86
2023-04-23T05:17:28.639Z,7.79
2023-04-23T05:19:58.140Z,7.73
2023-04-23T05:22:28.874Z,7.77
2023-04-23T05:24:59.132Z,7.65
2023-04-23T05:27:28.599Z,7.89
2023-04-23T05:29:59.684Z,7.86
2023-04-23T05:32:29.234Z,7.88
2023-04-23T05:35:00.370Z,7.85
2023-04-23T05:37:30.438Z,7.90
2023-04-23T05:39:59.956Z,7.84
2023-04-23T05:42:29.722Z,8.09
2023-04-23T05:45:00.908Z,7.98
2023-04-23T05:47:30.546Z,8.14
2023-04-23T05:50:00.230Z,8.19
2023-04-23T05:52:31.685Z,8.29
2023-04-23T05:55:02.109Z,8.51
2023-04-23T05:57:33.924Z,8.58
2023-04-23T06:00:09.801Z,8.62
2023-04-23T06:02:42.748Z,8.33
2023-04-23T06:05:12.649Z,8.84
2023-04-23T06:07:42.695Z,8.89
2023-04-23T06:10:13.072Z,8.94
2023-04-23T06:12:42.539Z,9.01
2023-04-23T06:15:13.351Z,9.06
2023-04-23T06:17:44.552Z,9.19
2023-04-23T06:20:14.226Z,9.33
2023-04-23T06:22:43.592Z,9.43
2023-04-23T06:25:12.911Z,9.49
2023-04-23T06:27:42.343Z,9.66
2023-04-23T06:30:20.792Z,9.78
2023-04-23T06:32:50.376Z,9.93
2023-04-23T06:35:24.794Z,10.04
2023-04-23T06:37:53.959Z,10.26
2023-04-23T06:40:23.372Z,10.28
2023-04-23T06:42:52.995Z,10.44
2023-04-23T06:45:37.284Z,10.53
2023-04-23T06:48:08.670Z,10.60
2023-04-23T06:50:38.229Z,10.72
2023-04-23T06:53:07.638Z,10.76
2023-04-23T06:55:37.091Z,11.05
2023-04-23T06:58:07.313Z,11.08
2023-04-23T07:00:38.328Z,11.25
2023-04-23T07:03:08.114Z,11.22
2023-04-23T07:05:37.486Z,11.44
2023-04-23T07:08:06.809Z,11.74
2023-04-23T07:10:36.381Z,11.91
2023-04-23T07:13:05.784Z,11.80
2023-04-23T07:15:34.869Z,11.86
2023-04-23T07:18:06.794Z,11.91
2023-04-23T07:20:36.885Z,12.10
2023-04-23T07:23:08.491Z,12.10
2023-04-23T07:25:41.558Z,12.15
2023-04-23T07:32:28.232Z,12.50
2023-04-23T07:34:58.801Z,12.78
2023-04-23T07:37:27.898Z,12.83
2023-04-23T07:39:59.033Z,13.16
2023-04-23T07:42:28.108Z,13.24
2023-04-23T07:44:56.846Z,13.51
2023-04-23T07:47:25.877Z,13.91
2023-04-23T07:50:01.294Z,13.96
2023-04-23T07:52:32.456Z,13.98
2023-04-23T07:55:01.240Z,14.11
2023-04-23T07:57:30.102Z,14.38
2023-04-23T07:59:58.834Z,14.43
2023-04-23T08:02:28.625Z,14.60
2023-04-23T08:05:01.103Z,14.83
2023-04-23T08:07:30.534Z,15.04
2023-04-23T08:10:03.089Z,14.98
2023-04-23T08:12:31.972Z,14.88
2023-04-23T08:15:00.790Z,15.07
2023-04-23T08:17:36.252Z,15.00
2023-04-23T08:20:07.788Z,15.27
2023-04-23T08:27:31.871Z,15.32
2023-04-23T08:30:01.773Z,15.59
2023-04-23T08:32:31.290Z,15.49
2023-04-23T08:35:00.828Z,15.90
2023-04-23T08:37:31.833Z,15.92
2023-04-23T08:40:02.196Z,14.14
2023-04-23T08:42:44.740Z,15.90
2023-04-23T08:45:14.751Z,15.75
2023-04-23T08:47:45.045Z,15.73
2023-04-23T08:50:16.661Z,15.84
2023-04-23T08:52:51.222Z,15.95
2023-04-23T08:55:21.884Z,15.89
2023-04-23T08:57:52.436Z,16.06
2023-04-23T09:00:24.310Z,16.00
2023-04-23T09:02:54.940Z,16.04
2023-04-23T09:05:24.788Z,15.89
2023-04-23T09:07:55.541Z,16.26
2023-04-23T09:10:26.802Z,16.20
2023-04-23T09:12:55.689Z,16.20
2023-04-23T09:15:24.512Z,16.34
2023-04-23T09:17:53.490Z,16.29
2023-04-23T09:20:22.306Z,16.35
2023-04-23T09:22:52.755Z,16.16
2023-04-23T09:25:24.895Z,16.25
2023-04-23T09:27:54.199Z,16.17
2023-04-23T09:30:25.755Z,15.68
2023-04-23T09:32:55.304Z,15.82
2023-04-23T09:35:24.162Z,15.86
2023-04-23T09:37:53.659Z,14.67
2023-04-23T09:40:25.863Z,16.02
2023-04-23T09:42:55.083Z,15.87
2023-04-23T09:45:25.849Z,15.53
2023-04-23T09:47:56.852Z,15.64
2023-04-23T09:50:34.108Z,15.83
2023-04-23T09:53:02.888Z,15.82
2023-04-23T09:55:37.493Z,15.38
2023-04-23T09:58:07.234Z,15.78
2023-04-23T10:00:38.978Z,16.04
2023-04-23T10:03:08.984Z,15.31
2023-04-23T10:08:17.666Z,16.34
2023-04-23T10:13:21.560Z,16.44
2023-04-23T10:15:50.352Z,16.30
2023-04-23T10:18:21.631Z,16.22
2023-04-23T10:20:55.220Z,16.17
2023-04-23T10:23:25.671Z,16.06
2023-04-23T10:25:57.154Z,15.96
2023-04-23T10:28:32.071Z,15.90
2023-04-23T10:31:01.137Z,15.61
2023-04-23T10:33:39.792Z,15.74
2023-04-23T10:36:15.583Z,15.01
2023-04-23T10:38:54.949Z,15.78
2023-04-23T10:41:35.838Z,15.35
2023-04-23T10:44:05.347Z,15.36
2023-04-23T10:46:37.916Z,15.50
2023-04-23T10:49:09.740Z,15.47
2023-04-23T10:54:11.533Z,15.25
2023-04-23T10:56:46.171Z,15.20
2023-04-23T10:59:22.080Z,15.17
2023-04-23T11:01:51.915Z,15.22
2023-04-23T11:04:22.374Z,15.04
2023-04-23T11:06:59.280Z,15.16
2023-04-23T11:09:33.590Z,15.11
2023-04-23T11:12:07.929Z,14.99
2023-04-23T11:14:38.685Z,15.14
2023-04-23T11:17:07.650Z,14.89
2023-04-23T11:19:37.134Z,15.09
2023-04-23T11:22:08.376Z,15.17
2023-04-23T11:24:42.116Z,15.42
2023-04-23T11:27:14.562Z,15.29
2023-04-23T11:29:45.146Z,15.29
2023-04-23T11:32:16.699Z,15.18
2023-04-23T11:34:46.916Z,15.13
2023-04-23T11:37:16.530Z,15.25
2023-04-23T11:39:49.378Z,14.81
2023-04-23T11:42:21.649Z,14.83
2023-04-23T11:44:50.442Z,14.84
2023-04-23T11:47:21.336Z,14.91
2023-04-23T11:49:50.204Z,14.96
2023-04-23T11:57:14.815Z,14.80
2023-04-23T11:59:46.125Z,14.92
2023-04-23T12:02:16.624Z,14.99
2023-04-23T12:04:46.725Z,15.02
2023-04-23T12:07:25.852Z,15.28
2023-04-23T12:10:01.838Z,15.23
2023-04-23T12:12:35.845Z,15.33
2023-04-23T12:15:08.659Z,15.43
2023-04-23T12:17:39.149Z,15.17
2023-04-23T12:20:13.988Z,15.24
2023-04-23T12:22:45.123Z,15.20
2023-04-23T12:25:15.988Z,15.25
2023-04-23T12:27:46.638Z,15.17
2023-04-23T12:30:18.196Z,15.07
2023-04-23T12:32:48.195Z,15.11
2023-04-23T12:35:23.453Z,15.45
2023-04-23T12:37:53.865Z,15.47
2023-04-23T12:40:25.347Z,15.46
2023-04-23T12:42:54.211Z,15.43
2023-04-23T12:45:24.721Z,15.44
2023-04-23T12:47:53.614Z,15.21
2023-04-23T12:50:22.428Z,15.18
2023-04-23T12:52:51.157Z,15.28
2023-04-23T12:55:20.075Z,14.94
2023-04-23T12:57:49.023Z,15.06
2023-04-23T13:00:18.314Z,15.02
2023-04-23T13:02:48.666Z,15.05
2023-04-23T13:05:17.629Z,14.96
2023-04-23T13:07:48.193Z,14.95
2023-04-23T13:10:17.321Z,14.59
2023-04-23T13:12:48.342Z,14.75
2023-04-23T13:20:14.881Z,13.99
2023-04-23T13:22:44.005Z,13.73
2023-04-23T13:25:14.471Z,13.65
2023-04-23T13:27:44.955Z,13.66
2023-04-23T13:30:15.629Z,13.39
2023-04-23T13:32:45.393Z,13.41
2023-04-23T13:35:18.263Z,13.42
2023-04-23T13:37:48.415Z,13.29
2023-04-23T13:40:18.365Z,13.26
2023-04-23T13:42:50.431Z,13.27
2023-04-23T13:45:20.332Z,13.36
2023-04-23T13:47:52.672Z,13.38
2023-04-23T13:50:24.338Z,13.23
2023-04-23T13:52:53.754Z,13.20
2023-04-23T13:55:23.824Z,13.12
2023-04-23T13:57:54.724Z,13.01
2023-04-23T14:00:23.538Z,12.26
2023-04-23T14:02:52.476Z,13.02
2023-04-23T14:05:21.304Z,12.94
2023-04-23T14:07:53.540Z,12.98
2023-04-23T14:10:22.540Z,13.09
2023-04-23T14:12:52.690Z,12.91
2023-04-23T14:15:21.775Z,12.96
2023-04-23T14:17:50.595Z,12.88
2023-04-23T14:20:20.169Z,12.92
2023-04-23T14:22:52.672Z,12.90
2023-04-23T14:25:31.904Z,13.15
2023-04-23T14:28:05.117Z,13.23
2023-04-23T14:30:36.254Z,13.10
2023-04-23T14:33:06.457Z,13.13
2023-04-23T14:38:11.893Z,13.07
2023-04-23T14:40:44.247Z,12.30
2023-04-23T14:43:15.828Z,12.93
2023-04-23T14:45:47.203Z,13.07
2023-04-23T14:48:17.421Z,12.93
2023-04-23T14:50:48.011Z,13.05
2023-04-23T14:53:18.160Z,13.00
2023-04-23T14:55:49.818Z,12.54
2023-04-23T14:58:19.303Z,12.87
2023-04-23T15:00:51.169Z,12.93
2023-04-23T15:03:21.358Z,13.05
2023-04-23T15:05:53.154Z,13.00
2023-04-23T15:13:37.615Z,12.62
2023-04-23T15:16:26.297Z,12.79
2023-04-23T15:19:07.900Z,12.76
2023-04-23T15:21:38.312Z,12.79
2023-04-23T15:24:08.642Z,12.48
2023-04-23T15:26:39.113Z,12.78
2023-04-23T15:29:10.632Z,12.50
2023-04-23T15:31:40.278Z,12.72
2023-04-23T15:34:12.352Z,12.51
2023-04-23T15:36:42.125Z,12.57
2023-04-23T15:39:12.133Z,12.47
2023-04-23T15:41:43.537Z,12.40
2023-04-23T15:44:17.710Z,12.25
2023-04-23T15:46:48.124Z,12.04
2023-04-23T15:49:20.093Z,12.10
2023-04-23T15:51:48.969Z,12.17
2023-04-23T15:55:42.495Z,12.17
2023-04-23T15:58:46.702Z,12.02
2023-04-23T16:01:18.385Z,12.34
2023-04-23T16:04:07.941Z,12.21
2023-04-23T16:06:45.992Z,12.38
2023-04-23T16:09:15.837Z,12.47
2023-04-23T16:11:45.479Z,12.16
2023-04-23T16:14:17.622Z,12.45
2023-04-23T16:16:51.171Z,12.22
2023-04-23T16:19:20.806Z,12.11
2023-04-23T16:21:51.117Z,12.16
2023-04-23T16:24:23.140Z,12.03
2023-04-23T16:26:53.947Z,12.37
2023-04-23T16:29:24.303Z,12.18
2023-04-23T16:31:56.120Z,11.83
2023-04-23T16:34:26.140Z,12.08
2023-04-23T16:36:55.051Z,12.01
2023-04-23T16:39:23.945Z,11.78
2023-04-23T16:41:52.742Z,11.65
2023-04-23T16:44:21.529Z,11.89
2023-04-23T16:46:50.849Z,11.92
2023-04-23T16:49:22.078Z,11.71
2023-04-23T16:51:50.961Z,11.95
2023-04-23T16:54:19.939Z,11.49
2023-04-23T16:56:51.079Z,11.30
2023-04-23T16:59:19.957Z,11.72
2023-04-23T17:06:44.367Z,11.72
2023-04-23T17:09:13.761Z,11.88
2023-04-23T17:11:43.611Z,11.47
2023-04-23T17:14:14.614Z,11.46
2023-04-23T17:16:44.731Z,11.45
2023-04-23T17:19:15.227Z,11.39
2023-04-23T17:21:46.694Z,11.53
2023-04-23T17:24:17.260Z,11.25
2023-04-23T17:26:48.814Z,11.13
2023-04-23T17:29:18.947Z,11.79
2023-04-23T17:31:48.764Z,11.41
2023-04-23T17:34:19.038Z,11.20
2023-04-23T17:37:02.627Z,10.57
2023-04-23T17:39:38.688Z,10.90
2023-04-23T17:42:10.613Z,10.84
2023-04-23T17:44:40.705Z,10.82
2023-04-23T17:47:14.131Z,10.86
2023-04-23T17:49:43.553Z,10.70
2023-04-23T17:52:13.843Z,10.83
2023-04-23T17:54:43.232Z,10.78
2023-04-23T17:57:12.505Z,10.04
2023-04-23T17:59:41.771Z,10.65
2023-04-23T18:02:11.335Z,10.58
2023-04-23T18:04:40.225Z,10.57
2023-04-23T18:07:09.063Z,10.77
2023-04-23T18:09:39.213Z,10.53
2023-04-23T18:12:08.216Z,10.42
2023-04-23T18:14:37.033Z,10.38
2023-04-23T18:17:05.960Z,10.51
2023-04-23T18:19:35.070Z,10.57
2023-04-23T18:22:03.962Z,10.37
2023-04-23T18:24:32.796Z,10.29
2023-04-23T18:27:03.553Z,10.31
2023-04-23T18:29:32.407Z,10.08
2023-04-23T18:32:01.430Z,9.92
2023-04-23T18:34:32.936Z,9.71
2023-04-23T18:37:05.106Z,9.94
2023-04-23T18:39:34.121Z,10.02
2023-04-23T18:42:05.511Z,10.12
2023-04-23T18:44:35.055Z,10.10
2023-04-23T18:47:04.296Z,10.16
2023-04-23T18:49:44.978Z,9.78
2023-04-23T18:52:13.938Z,10.21
2023-04-23T18:54:44.261Z,10.09
2023-04-23T18:57:14.864Z,9.87
2023-04-23T18:59:43.724Z,9.91
2023-04-23T19:02:28.130Z,9.89
2023-04-23T19:05:04.460Z,9.87
2023-04-23T19:07:37.184Z,9.76
2023-04-23T19:10:06.595Z,9.73
2023-04-23T19:12:36.710Z,9.86
2023-04-23T19:15:05.998Z,9.86
2023-04-23T19:17:35.678Z,9.75
2023-04-23T19:20:04.446Z,9.97
2023-04-23T19:22:33.189Z,10.05
2023-04-23T19:25:01.886Z,9.87
2023-04-23T19:27:32.946Z,9.95
2023-04-23T19:30:03.083Z,9.79
2023-04-23T19:32:34.155Z,9.82
2023-04-23T19:35:02.995Z,9.78
2023-04-23T19:37:41.604Z,9.84
2023-04-23T19:40:12.083Z,9.67
2023-04-23T19:42:41.034Z,9.85
2023-04-23T19:45:12.788Z,9.85
2023-04-23T19:47:44.270Z,9.87
2023-04-23T19:50:14.169Z,9.88
2023-04-23T19:52:43.202Z,9.86
2023-04-23T19:55:14.540Z,9.99
2023-04-23T19:57:46.174Z,9.96
2023-04-23T20:00:17.163Z,9.85
2023-04-23T20:02:46.277Z,9.82
2023-04-23T20:05:15.159Z,9.63
2023-04-23T20:07:46.586Z,9.97
2023-04-23T20:10:17.428Z,9.83
2023-04-23T20:12:46.921Z,9.87
2023-04-23T20:15:17.481Z,9.69
2023-04-23T20:17:46.958Z,9.68
2023-04-23T20:20:16.540Z,9.80
2023-04-23T20:22:46.920Z,9.88
2023-04-23T20:25:15.701Z,10.02
2023-04-23T20:27:44.666Z,9.96
2023-04-23T20:30:16.793Z,9.95
2023-04-23T20:32:46.465Z,10.39
2023-04-23T20:35:15.676Z,10.48
2023-04-23T20:37:48.006Z,10.67
2023-04-23T20:40:16.709Z,10.90
2023-04-23T20:42:46.538Z,11.06
2023-04-23T20:45:17.090Z,10.93
2023-04-23T20:47:46.967Z,10.75
2023-04-23T20:50:15.708Z,10.60
2023-04-23T20:52:44.403Z,10.40
2023-04-23T20:55:13.069Z,10.40
2023-04-23T20:57:42.696Z,10.37
2023-04-23T21:00:14.253Z,10.42
2023-04-23T21:02:44.732Z,10.36
2023-04-23T21:05:16.049Z,10.27
2023-04-23T21:07:45.049Z,10.29
2023-04-23T21:10:16.388Z,10.31
2023-04-23T21:12:47.735Z,10.21
2023-04-23T21:15:17.361Z,10.23
2023-04-23T21:17:48.119Z,10.19
2023-04-23T21:20:17.032Z,10.33
2023-04-23T21:22:48.436Z,10.13
2023-04-23T21:25:17.426Z,9.97
2023-04-23T21:27:48.675Z,10.17
2023-04-23T21:30:24.374Z,10.30
2023-04-23T21:32:54.755Z,10.25
2023-04-23T21:35:26.643Z,10.20
2023-04-23T21:37:55.752Z,10.16
2023-04-23T21:40:26.706Z,10.20
2023-04-23T21:42:55.660Z,10.19
2023-04-23T21:45:25.224Z,10.15
2023-04-23T21:47:56.970Z,10.19
2023-04-23T21:50:27.542Z,10.19
2023-04-23T21:52:58.732Z,10.29
2023-04-23T21:55:31.022Z,10.23
2023-04-23T21:58:15.829Z,10.14
2023-04-23T22:00:48.047Z,10.22
2023-04-23T22:03:37.511Z,10.18
2023-04-23T22:06:09.550Z,10.20
2023-04-23T22:08:41.403Z,10.23
2023-04-23T22:11:10.622Z,10.17
2023-04-23T22:13:40.018Z,10.28
2023-04-23T22:16:24.535Z,10.22
2023-04-23T22:18:58.601Z,10.22
2023-04-23T22:21:28.429Z,10.23
2023-04-23T22:23:57.514Z,10.28
2023-04-23T22:26:26.279Z,10.20
2023-04-23T22:28:55.432Z,10.17
2023-04-23T22:31:24.161Z,10.19
2023-04-23T22:33:53.287Z,10.04
2023-04-23T22:36:23.775Z,10.14
2023-04-23T22:38:53.057Z,10.16
2023-04-23T22:41:22.287Z,10.37
2023-04-23T22:43:53.618Z,10.29
2023-04-23T22:46:22.915Z,10.33
2023-04-23T22:48:52.812Z,10.61
2023-04-23T22:51:23.090Z,10.55
2023-04-23T22:53:52.065Z,10.59
2023-04-23T22:56:22.205Z,10.86
2023-04-23T22:58:52.638Z,10.79
2023-04-23T23:01:22.578Z,10.40
2023-04-23T23:03:52.093Z,10.58
2023-04-23T23:06:22.246Z,10.62
2023-04-23T23:08:53.055Z,10.39
2023-04-23T23:11:22.469Z,10.34
2023-04-23T23:13:53.218Z,10.33
2023-04-23T23:16:23.033Z,10.30
2023-04-23T23:18:53.108Z,10.01
2023-04-23T23:21:23.206Z,9.67
2023-04-23T23:23:54.682Z,9.73
2023-04-23T23:26:24.115Z,9.93
2023-04-23T23:28:53.628Z,9.96
2023-04-23T23:31:26.172Z,9.81
2023-04-23T23:33:55.875Z,9.65
2023-04-23T23:36:30.128Z,9.71
2023-04-23T23:39:01.346Z,9.48
2023-04-23T23:41:31.392Z,9.62
2023-04-23T23:44:01.201Z,9.79
2023-04-23T23:46:30.774Z,9.67
2023-04-23T23:49:00.665Z,9.58
2023-04-23T23:51:33.277Z,9.68
2023-04-23T23:54:04.677Z,9.47
2023-04-23T23:56:34.683Z,9.61
2023-04-23T23:59:04.163Z,9.64
